sensor_id;sensor_type;location;lat;lon;timestamp;temperature;humidity
5605;DHT22;9297;47.258;11.362;2024-02-21T00:00:21;4.70;76.70
5605;DHT22;9297;47.258;11.362;2024-02-21T00:02:48;4.60;77.00
5605;DHT22;9297;47.258;11.362;2024-02-21T00:05:15;4.60;77.10
5605;DHT22;9297;47.258;11.362;2024-02-21T00:07:44;4.60;77.80
5605;DHT22;9297;47.258;11.362;2024-02-21T00:10:11;4.50;77.00
5605;DHT22;9297;47.258;11.362;2024-02-21T00:12:38;4.60;77.10
5605;DHT22;9297;47.258;11.362;2024-02-21T00:15:05;4.60;76.90
5605;DHT22;9297;47.258;11.362;2024-02-21T00:17:32;4.60;76.90
5605;DHT22;9297;47.258;11.362;2024-02-21T00:19:59;4.60;77.00
5605;DHT22;9297;47.258;11.362;2024-02-21T00:22:27;4.50;77.40
5605;DHT22;9297;47.258;11.362;2024-02-21T00:24:55;4.40;78.10
5605;DHT22;9297;47.258;11.362;2024-02-21T00:27:22;4.40;78.10
5605;DHT22;9297;47.258;11.362;2024-02-21T00:29:49;4.40;77.40
5605;DHT22;9297;47.258;11.362;2024-02-21T00:32:16;4.20;78.70
5605;DHT22;9297;47.258;11.362;2024-02-21T00:34:43;4.10;78.60
5605;DHT22;9297;47.258;11.362;2024-02-21T00:37:11;4.10;78.80
5605;DHT22;9297;47.258;11.362;2024-02-21T00:39:38;4.20;78.80
5605;DHT22;9297;47.258;11.362;2024-02-21T00:42:06;4.20;78.50
5605;DHT22;9297;47.258;11.362;2024-02-21T00:44:33;4.10;78.50
5605;DHT22;9297;47.258;11.362;2024-02-21T00:47:00;4.10;78.50
5605;DHT22;9297;47.258;11.362;2024-02-21T00:49:27;4.10;79.00
5605;DHT22;9297;47.258;11.362;2024-02-21T00:51:54;4.10;79.80
5605;DHT22;9297;47.258;11.362;2024-02-21T00:54:21;4.00;78.80
5605;DHT22;9297;47.258;11.362;2024-02-21T00:56:48;4.00;78.70
5605;DHT22;9297;47.258;11.362;2024-02-21T00:59:16;4.10;78.60
5605;DHT22;9297;47.258;11.362;2024-02-21T01:01:43;4.10;78.80
5605;DHT22;9297;47.258;11.362;2024-02-21T01:04:10;4.10;79.10
5605;DHT22;9297;47.258;11.362;2024-02-21T01:06:38;4.10;79.60
5605;DHT22;9297;47.258;11.362;2024-02-21T01:09:05;4.10;80.00
5605;DHT22;9297;47.258;11.362;2024-02-21T01:11:32;4.00;80.30
5605;DHT22;9297;47.258;11.362;2024-02-21T01:13:59;3.90;80.60
5605;DHT22;9297;47.258;11.362;2024-02-21T01:16:27;3.80;80.30
5605;DHT22;9297;47.258;11.362;2024-02-21T01:18:54;3.70;81.50
5605;DHT22;9297;47.258;11.362;2024-02-21T01:21:21;3.60;81.40
5605;DHT22;9297;47.258;11.362;2024-02-21T01:23:48;3.60;81.70
5605;DHT22;9297;47.258;11.362;2024-02-21T01:26:15;3.60;82.90
5605;DHT22;9297;47.258;11.362;2024-02-21T01:28:42;3.60;81.90
5605;DHT22;9297;47.258;11.362;2024-02-21T01:31:09;3.60;82.00
5605;DHT22;9297;47.258;11.362;2024-02-21T01:33:38;3.50;82.20
5605;DHT22;9297;47.258;11.362;2024-02-21T01:36:05;3.60;81.80
5605;DHT22;9297;47.258;11.362;2024-02-21T01:38:32;3.60;81.60
5605;DHT22;9297;47.258;11.362;2024-02-21T01:40:59;3.70;81.40
5605;DHT22;9297;47.258;11.362;2024-02-21T01:43:27;3.70;80.80
5605;DHT22;9297;47.258;11.362;2024-02-21T01:45:55;3.80;80.70
5605;DHT22;9297;47.258;11.362;2024-02-21T01:48:23;3.70;81.10
5605;DHT22;9297;47.258;11.362;2024-02-21T01:50:54;3.60;80.80
5605;DHT22;9297;47.258;11.362;2024-02-21T01:53:24;3.60;81.20
5605;DHT22;9297;47.258;11.362;2024-02-21T01:55:52;3.70;81.10
5605;DHT22;9297;47.258;11.362;2024-02-21T01:58:20;3.70;80.70
5605;DHT22;9297;47.258;11.362;2024-02-21T02:00:48;3.70;80.60
5605;DHT22;9297;47.258;11.362;2024-02-21T02:03:15;3.70;80.60
5605;DHT22;9297;47.258;11.362;2024-02-21T02:05:44;3.60;81.10
5605;DHT22;9297;47.258;11.362;2024-02-21T02:08:12;3.50;81.60
5605;DHT22;9297;47.258;11.362;2024-02-21T02:10:40;3.40;81.30
5605;DHT22;9297;47.258;11.362;2024-02-21T02:13:07;3.30;81.50
5605;DHT22;9297;47.258;11.362;2024-02-21T02:15:38;3.10;82.50
5605;DHT22;9297;47.258;11.362;2024-02-21T02:18:05;3.10;83.20
5605;DHT22;9297;47.258;11.362;2024-02-21T02:20:33;3.20;82.90
5605;DHT22;9297;47.258;11.362;2024-02-21T02:23:00;3.20;82.40
5605;DHT22;9297;47.258;11.362;2024-02-21T02:25:30;3.30;82.60
5605;DHT22;9297;47.258;11.362;2024-02-21T02:27:57;3.30;81.70
5605;DHT22;9297;47.258;11.362;2024-02-21T02:30:24;3.40;81.40
5605;DHT22;9297;47.258;11.362;2024-02-21T02:32:51;3.40;81.60
5605;DHT22;9297;47.258;11.362;2024-02-21T02:35:18;3.30;82.20
5605;DHT22;9297;47.258;11.362;2024-02-21T02:37:48;3.30;83.00
5605;DHT22;9297;47.258;11.362;2024-02-21T02:40:16;3.30;82.30
5605;DHT22;9297;47.258;11.362;2024-02-21T02:42:44;3.30;82.50
5605;DHT22;9297;47.258;11.362;2024-02-21T02:45:11;3.30;83.90
5605;DHT22;9297;47.258;11.362;2024-02-21T02:47:39;3.20;83.40
5605;DHT22;9297;47.258;11.362;2024-02-21T02:50:07;3.20;83.90
5605;DHT22;9297;47.258;11.362;2024-02-21T02:52:34;3.20;83.70
5605;DHT22;9297;47.258;11.362;2024-02-21T02:55:01;3.10;83.80
5605;DHT22;9297;47.258;11.362;2024-02-21T02:57:28;3.10;83.80
5605;DHT22;9297;47.258;11.362;2024-02-21T02:59:56;3.10;83.70
5605;DHT22;9297;47.258;11.362;2024-02-21T03:02:23;3.10;84.00
5605;DHT22;9297;47.258;11.362;2024-02-21T03:04:50;3.00;82.70
5605;DHT22;9297;47.258;11.362;2024-02-21T03:07:17;2.90;83.70
5605;DHT22;9297;47.258;11.362;2024-02-21T03:09:45;2.80;84.40
5605;DHT22;9297;47.258;11.362;2024-02-21T03:12:12;2.80;83.70
5605;DHT22;9297;47.258;11.362;2024-02-21T03:14:39;2.70;83.50
5605;DHT22;9297;47.258;11.362;2024-02-21T03:17:08;2.80;83.80
5605;DHT22;9297;47.258;11.362;2024-02-21T03:19:35;2.90;83.30
5605;DHT22;9297;47.258;11.362;2024-02-21T03:22:02;3.00;83.90
5605;DHT22;9297;47.258;11.362;2024-02-21T03:24:31;2.90;83.20
5605;DHT22;9297;47.258;11.362;2024-02-21T03:26:58;3.00;83.30
5605;DHT22;9297;47.258;11.362;2024-02-21T03:29:25;3.00;83.30
5605;DHT22;9297;47.258;11.362;2024-02-21T03:31:52;2.90;83.90
5605;DHT22;9297;47.258;11.362;2024-02-21T03:34:20;2.90;84.30
5605;DHT22;9297;47.258;11.362;2024-02-21T03:36:47;2.80;84.20
5605;DHT22;9297;47.258;11.362;2024-02-21T03:39:14;2.80;84.50
5605;DHT22;9297;47.258;11.362;2024-02-21T03:41:41;2.80;84.50
5605;DHT22;9297;47.258;11.362;2024-02-21T03:44:08;2.80;84.60
5605;DHT22;9297;47.258;11.362;2024-02-21T03:46:35;2.80;84.70
5605;DHT22;9297;47.258;11.362;2024-02-21T03:49:02;2.80;84.30
5605;DHT22;9297;47.258;11.362;2024-02-21T03:51:30;2.80;84.00
5605;DHT22;9297;47.258;11.362;2024-02-21T03:53:57;2.70;84.30
5605;DHT22;9297;47.258;11.362;2024-02-21T03:56:24;2.70;84.10
5605;DHT22;9297;47.258;11.362;2024-02-21T03:58:51;2.70;83.30
5605;DHT22;9297;47.258;11.362;2024-02-21T04:01:18;2.60;83.70
5605;DHT22;9297;47.258;11.362;2024-02-21T04:03:45;2.60;85.60
5605;DHT22;9297;47.258;11.362;2024-02-21T04:06:12;2.60;86.00
5605;DHT22;9297;47.258;11.362;2024-02-21T04:08:41;2.70;85.20
5605;DHT22;9297;47.258;11.362;2024-02-21T04:11:08;2.70;84.30
5605;DHT22;9297;47.258;11.362;2024-02-21T04:13:34;2.70;83.80
5605;DHT22;9297;47.258;11.362;2024-02-21T04:16:02;2.70;84.00
5605;DHT22;9297;47.258;11.362;2024-02-21T04:18:28;2.70;84.20
5605;DHT22;9297;47.258;11.362;2024-02-21T04:20:55;2.60;84.30
5605;DHT22;9297;47.258;11.362;2024-02-21T04:23:22;2.60;84.00
5605;DHT22;9297;47.258;11.362;2024-02-21T04:25:51;2.70;82.60
5605;DHT22;9297;47.258;11.362;2024-02-21T04:28:18;2.70;82.50
5605;DHT22;9297;47.258;11.362;2024-02-21T04:30:45;2.60;82.40
5605;DHT22;9297;47.258;11.362;2024-02-21T04:33:12;2.70;82.00
5605;DHT22;9297;47.258;11.362;2024-02-21T04:35:39;2.70;81.80
5605;DHT22;9297;47.258;11.362;2024-02-21T04:38:06;2.80;81.30
5605;DHT22;9297;47.258;11.362;2024-02-21T04:40:33;2.60;81.90
5605;DHT22;9297;47.258;11.362;2024-02-21T04:43:01;2.40;82.40
5605;DHT22;9297;47.258;11.362;2024-02-21T04:45:28;2.50;83.40
5605;DHT22;9297;47.258;11.362;2024-02-21T04:47:55;2.50;83.60
5605;DHT22;9297;47.258;11.362;2024-02-21T04:50:22;2.50;82.80
5605;DHT22;9297;47.258;11.362;2024-02-21T04:52:49;2.50;83.20
5605;DHT22;9297;47.258;11.362;2024-02-21T04:55:16;2.40;83.00
5605;DHT22;9297;47.258;11.362;2024-02-21T04:57:43;2.50;84.20
5605;DHT22;9297;47.258;11.362;2024-02-21T05:00:13;2.40;83.60
5605;DHT22;9297;47.258;11.362;2024-02-21T05:02:40;2.40;83.60
5605;DHT22;9297;47.258;11.362;2024-02-21T05:05:08;2.40;83.60
5605;DHT22;9297;47.258;11.362;2024-02-21T05:07:35;2.40;83.30
5605;DHT22;9297;47.258;11.362;2024-02-21T05:10:02;2.30;83.00
5605;DHT22;9297;47.258;11.362;2024-02-21T05:12:29;2.50;83.00
5605;DHT22;9297;47.258;11.362;2024-02-21T05:14:56;2.40;82.40
5605;DHT22;9297;47.258;11.362;2024-02-21T05:17:25;2.20;82.50
5605;DHT22;9297;47.258;11.362;2024-02-21T05:19:52;2.30;82.90
5605;DHT22;9297;47.258;11.362;2024-02-21T05:22:19;2.30;83.30
5605;DHT22;9297;47.258;11.362;2024-02-21T05:24:46;2.30;83.50
5605;DHT22;9297;47.258;11.362;2024-02-21T05:27:13;2.40;84.50
5605;DHT22;9297;47.258;11.362;2024-02-21T05:29:40;2.30;84.00
5605;DHT22;9297;47.258;11.362;2024-02-21T05:32:06;2.30;84.10
5605;DHT22;9297;47.258;11.362;2024-02-21T05:34:35;2.30;84.00
5605;DHT22;9297;47.258;11.362;2024-02-21T05:37:02;2.30;84.10
5605;DHT22;9297;47.258;11.362;2024-02-21T05:39:29;2.30;83.90
5605;DHT22;9297;47.258;11.362;2024-02-21T05:41:56;2.30;83.50
5605;DHT22;9297;47.258;11.362;2024-02-21T05:44:23;2.30;83.80
5605;DHT22;9297;47.258;11.362;2024-02-21T05:46:50;2.30;83.70
5605;DHT22;9297;47.258;11.362;2024-02-21T05:49:17;2.30;83.70
5605;DHT22;9297;47.258;11.362;2024-02-21T05:51:46;2.30;83.30
5605;DHT22;9297;47.258;11.362;2024-02-21T05:54:13;2.30;83.20
5605;DHT22;9297;47.258;11.362;2024-02-21T05:56:44;2.20;83.20
5605;DHT22;9297;47.258;11.362;2024-02-21T05:59:11;2.20;84.30
5605;DHT22;9297;47.258;11.362;2024-02-21T06:01:38;2.10;83.60
5605;DHT22;9297;47.258;11.362;2024-02-21T06:04:05;4.60;99.90
5605;DHT22;9297;47.258;11.362;2024-02-21T06:06:32;5.10;99.90
5605;DHT22;9297;47.258;11.362;2024-02-21T06:09:00;4.80;99.90
5605;DHT22;9297;47.258;11.362;2024-02-21T06:11:27;3.50;84.60
5605;DHT22;9297;47.258;11.362;2024-02-21T06:13:54;3.40;95.10
5605;DHT22;9297;47.258;11.362;2024-02-21T06:16:22;3.50;82.10
5605;DHT22;9297;47.258;11.362;2024-02-21T06:18:49;3.20;82.50
5605;DHT22;9297;47.258;11.362;2024-02-21T06:21:16;2.90;82.80
5605;DHT22;9297;47.258;11.362;2024-02-21T06:23:43;2.90;83.30
5605;DHT22;9297;47.258;11.362;2024-02-21T06:26:11;2.70;83.50
5605;DHT22;9297;47.258;11.362;2024-02-21T06:28:38;2.60;84.40
5605;DHT22;9297;47.258;11.362;2024-02-21T06:31:05;2.50;85.10
5605;DHT22;9297;47.258;11.362;2024-02-21T06:33:32;2.50;84.40
5605;DHT22;9297;47.258;11.362;2024-02-21T06:35:59;2.60;84.50
5605;DHT22;9297;47.258;11.362;2024-02-21T06:38:26;2.40;85.40
5605;DHT22;9297;47.258;11.362;2024-02-21T06:40:53;2.20;84.50
5605;DHT22;9297;47.258;11.362;2024-02-21T06:43:21;2.10;85.40
5605;DHT22;9297;47.258;11.362;2024-02-21T06:45:48;2.20;84.40
5605;DHT22;9297;47.258;11.362;2024-02-21T06:48:15;2.10;84.00
5605;DHT22;9297;47.258;11.362;2024-02-21T06:50:42;2.00;84.00
5605;DHT22;9297;47.258;11.362;2024-02-21T06:53:09;2.10;85.20
5605;DHT22;9297;47.258;11.362;2024-02-21T06:55:36;2.10;84.90
5605;DHT22;9297;47.258;11.362;2024-02-21T06:58:03;2.20;84.90
5605;DHT22;9297;47.258;11.362;2024-02-21T07:00:32;2.20;85.10
5605;DHT22;9297;47.258;11.362;2024-02-21T07:02:59;2.20;86.80
5605;DHT22;9297;47.258;11.362;2024-02-21T07:05:26;2.30;84.80
5605;DHT22;9297;47.258;11.362;2024-02-21T07:07:53;2.40;84.60
5605;DHT22;9297;47.258;11.362;2024-02-21T07:10:20;2.50;85.20
5605;DHT22;9297;47.258;11.362;2024-02-21T07:12:47;2.60;84.90
5605;DHT22;9297;47.258;11.362;2024-02-21T07:15:14;2.70;88.40
5605;DHT22;9297;47.258;11.362;2024-02-21T07:17:42;2.70;84.80
5605;DHT22;9297;47.258;11.362;2024-02-21T07:20:10;2.80;90.20
5605;DHT22;9297;47.258;11.362;2024-02-21T07:22:37;2.80;83.80
5605;DHT22;9297;47.258;11.362;2024-02-21T07:25:05;2.80;83.50
5605;DHT22;9297;47.258;11.362;2024-02-21T07:27:33;2.90;82.90
5605;DHT22;9297;47.258;11.362;2024-02-21T07:30:00;2.90;81.90
5605;DHT22;9297;47.258;11.362;2024-02-21T07:32:27;2.90;82.10
5605;DHT22;9297;47.258;11.362;2024-02-21T07:34:55;2.90;82.80
5605;DHT22;9297;47.258;11.362;2024-02-21T07:37:22;3.00;82.90
5605;DHT22;9297;47.258;11.362;2024-02-21T07:39:49;3.10;83.00
5605;DHT22;9297;47.258;11.362;2024-02-21T07:42:16;3.10;83.80
5605;DHT22;9297;47.258;11.362;2024-02-21T07:44:43;3.00;83.40
5605;DHT22;9297;47.258;11.362;2024-02-21T07:47:10;3.10;83.00
5605;DHT22;9297;47.258;11.362;2024-02-21T07:49:44;3.10;84.70
5605;DHT22;9297;47.258;11.362;2024-02-21T07:52:13;3.10;85.90
5605;DHT22;9297;47.258;11.362;2024-02-21T07:54:40;2.90;87.10
5605;DHT22;9297;47.258;11.362;2024-02-21T07:57:07;3.00;85.70
5605;DHT22;9297;47.258;11.362;2024-02-21T07:59:34;3.00;85.50
5605;DHT22;9297;47.258;11.362;2024-02-21T08:02:01;3.00;84.70
5605;DHT22;9297;47.258;11.362;2024-02-21T08:04:28;3.30;83.80
5605;DHT22;9297;47.258;11.362;2024-02-21T08:06:55;3.40;83.20
5605;DHT22;9297;47.258;11.362;2024-02-21T08:09:24;3.50;81.00
5605;DHT22;9297;47.258;11.362;2024-02-21T08:11:51;3.60;80.90
5605;DHT22;9297;47.258;11.362;2024-02-21T08:14:18;3.60;81.10
5605;DHT22;9297;47.258;11.362;2024-02-21T08:16:47;3.70;79.80
5605;DHT22;9297;47.258;11.362;2024-02-21T08:19:14;3.70;80.60
5605;DHT22;9297;47.258;11.362;2024-02-21T08:21:41;3.90;79.70
5605;DHT22;9297;47.258;11.362;2024-02-21T08:24:08;3.90;81.30
5605;DHT22;9297;47.258;11.362;2024-02-21T08:26:40;3.90;81.90
5605;DHT22;9297;47.258;11.362;2024-02-21T08:29:07;3.90;81.40
5605;DHT22;9297;47.258;11.362;2024-02-21T08:31:34;4.00;81.00
5605;DHT22;9297;47.258;11.362;2024-02-21T08:34:01;4.00;81.60
5605;DHT22;9297;47.258;11.362;2024-02-21T08:36:28;4.10;79.80
5605;DHT22;9297;47.258;11.362;2024-02-21T08:38:55;4.20;78.70
5605;DHT22;9297;47.258;11.362;2024-02-21T08:41:23;4.30;76.80
5605;DHT22;9297;47.258;11.362;2024-02-21T08:44:09;4.30;76.30
5605;DHT22;9297;47.258;11.362;2024-02-21T08:46:36;4.40;76.40
5605;DHT22;9297;47.258;11.362;2024-02-21T08:49:03;4.50;75.60
5605;DHT22;9297;47.258;11.362;2024-02-21T08:51:30;4.50;76.40
5605;DHT22;9297;47.258;11.362;2024-02-21T08:53:58;4.40;76.30
5605;DHT22;9297;47.258;11.362;2024-02-21T08:56:25;4.60;75.90
5605;DHT22;9297;47.258;11.362;2024-02-21T08:58:52;4.60;74.10
5605;DHT22;9297;47.258;11.362;2024-02-21T09:01:20;4.80;75.50
5605;DHT22;9297;47.258;11.362;2024-02-21T09:03:47;4.70;76.80
5605;DHT22;9297;47.258;11.362;2024-02-21T09:06:14;4.90;76.20
5605;DHT22;9297;47.258;11.362;2024-02-21T09:08:41;4.90;71.60
5605;DHT22;9297;47.258;11.362;2024-02-21T09:11:09;5.00;75.20
5605;DHT22;9297;47.258;11.362;2024-02-21T09:13:36;5.00;72.10
5605;DHT22;9297;47.258;11.362;2024-02-21T09:16:04;5.00;71.70
5605;DHT22;9297;47.258;11.362;2024-02-21T09:18:32;5.20;71.50
5605;DHT22;9297;47.258;11.362;2024-02-21T09:20:59;5.40;68.30
5605;DHT22;9297;47.258;11.362;2024-02-21T09:23:26;5.30;67.00
5605;DHT22;9297;47.258;11.362;2024-02-21T09:25:53;5.30;66.90
5605;DHT22;9297;47.258;11.362;2024-02-21T09:28:20;5.40;64.40
5605;DHT22;9297;47.258;11.362;2024-02-21T09:30:47;5.60;65.70
5605;DHT22;9297;47.258;11.362;2024-02-21T09:33:14;5.70;62.10
5605;DHT22;9297;47.258;11.362;2024-02-21T09:35:57;5.80;62.30
5605;DHT22;9297;47.258;11.362;2024-02-21T09:38:24;5.90;61.20
5605;DHT22;9297;47.258;11.362;2024-02-21T09:40:59;6.00;60.70
5605;DHT22;9297;47.258;11.362;2024-02-21T09:43:26;6.10;58.30
5605;DHT22;9297;47.258;11.362;2024-02-21T09:45:55;6.10;59.00
5605;DHT22;9297;47.258;11.362;2024-02-21T09:48:39;6.20;58.00
5605;DHT22;9297;47.258;11.362;2024-02-21T09:51:11;6.40;53.80
5605;DHT22;9297;47.258;11.362;2024-02-21T09:53:38;6.50;51.60
5605;DHT22;9297;47.258;11.362;2024-02-21T09:56:08;6.60;53.40
5605;DHT22;9297;47.258;11.362;2024-02-21T09:58:40;6.70;51.80
5605;DHT22;9297;47.258;11.362;2024-02-21T10:01:07;6.80;51.50
5605;DHT22;9297;47.258;11.362;2024-02-21T10:03:51;6.80;50.80
5605;DHT22;9297;47.258;11.362;2024-02-21T10:06:21;6.90;50.00
5605;DHT22;9297;47.258;11.362;2024-02-21T10:08:52;7.00;49.40
5605;DHT22;9297;47.258;11.362;2024-02-21T10:11:22;7.10;49.00
5605;DHT22;9297;47.258;11.362;2024-02-21T10:13:49;7.30;47.50
5605;DHT22;9297;47.258;11.362;2024-02-21T10:16:16;7.40;48.50
5605;DHT22;9297;47.258;11.362;2024-02-21T10:18:44;7.50;48.20
5605;DHT22;9297;47.258;11.362;2024-02-21T10:21:11;7.60;49.30
5605;DHT22;9297;47.258;11.362;2024-02-21T10:23:43;7.60;48.00
5605;DHT22;9297;47.258;11.362;2024-02-21T10:26:10;7.80;46.50
5605;DHT22;9297;47.258;11.362;2024-02-21T10:28:37;7.90;45.80
5605;DHT22;9297;47.258;11.362;2024-02-21T10:31:04;8.20;45.70
5605;DHT22;9297;47.258;11.362;2024-02-21T10:33:31;8.20;44.80
5605;DHT22;9297;47.258;11.362;2024-02-21T10:36:06;8.40;41.90
5605;DHT22;9297;47.258;11.362;2024-02-21T10:38:33;8.40;43.10
5605;DHT22;9297;47.258;11.362;2024-02-21T10:41:03;8.40;41.10
5605;DHT22;9297;47.258;11.362;2024-02-21T10:43:38;8.60;40.30
5605;DHT22;9297;47.258;11.362;2024-02-21T10:46:06;8.60;41.10
5605;DHT22;9297;47.258;11.362;2024-02-21T10:48:41;8.60;41.20
5605;DHT22;9297;47.258;11.362;2024-02-21T10:51:14;8.70;38.90
5605;DHT22;9297;47.258;11.362;2024-02-21T10:53:44;8.80;40.70
5605;DHT22;9297;47.258;11.362;2024-02-21T10:56:21;9.10;42.00
5605;DHT22;9297;47.258;11.362;2024-02-21T10:58:49;9.20;38.80
5605;DHT22;9297;47.258;11.362;2024-02-21T11:01:17;9.40;38.60
5605;DHT22;9297;47.258;11.362;2024-02-21T11:03:46;9.50;37.30
5605;DHT22;9297;47.258;11.362;2024-02-21T11:06:16;9.70;36.40
5605;DHT22;9297;47.258;11.362;2024-02-21T11:08:44;9.80;36.30
5605;DHT22;9297;47.258;11.362;2024-02-21T11:11:14;10.00;36.40
5605;DHT22;9297;47.258;11.362;2024-02-21T11:14:04;10.20;35.90
5605;DHT22;9297;47.258;11.362;2024-02-21T11:16:35;10.20;34.90
5605;DHT22;9297;47.258;11.362;2024-02-21T11:19:07;10.20;35.30
5605;DHT22;9297;47.258;11.362;2024-02-21T11:21:35;10.50;35.70
5605;DHT22;9297;47.258;11.362;2024-02-21T11:24:02;10.60;36.20
5605;DHT22;9297;47.258;11.362;2024-02-21T11:26:30;10.60;33.70
5605;DHT22;9297;47.258;11.362;2024-02-21T11:28:58;10.70;33.80
5605;DHT22;9297;47.258;11.362;2024-02-21T11:31:26;10.80;33.00
5605;DHT22;9297;47.258;11.362;2024-02-21T11:33:53;11.00;32.70
5605;DHT22;9297;47.258;11.362;2024-02-21T11:36:25;11.10;32.50
5605;DHT22;9297;47.258;11.362;2024-02-21T11:38:52;11.00;31.20
5605;DHT22;9297;47.258;11.362;2024-02-21T11:41:19;11.30;32.00
5605;DHT22;9297;47.258;11.362;2024-02-21T11:43:48;11.40;33.10
5605;DHT22;9297;47.258;11.362;2024-02-21T11:46:15;11.60;31.90
5605;DHT22;9297;47.258;11.362;2024-02-21T11:48:42;11.40;30.90
5605;DHT22;9297;47.258;11.362;2024-02-21T11:51:10;11.50;31.20
5605;DHT22;9297;47.258;11.362;2024-02-21T11:53:37;11.50;31.50
5605;DHT22;9297;47.258;11.362;2024-02-21T11:56:16;11.40;32.70
5605;DHT22;9297;47.258;11.362;2024-02-21T11:58:43;11.40;30.70
5605;DHT22;9297;47.258;11.362;2024-02-21T12:01:11;11.50;31.00
5605;DHT22;9297;47.258;11.362;2024-02-21T12:03:39;11.60;32.80
5605;DHT22;9297;47.258;11.362;2024-02-21T12:06:06;11.70;32.50
5605;DHT22;9297;47.258;11.362;2024-02-21T12:08:43;11.80;31.90
5605;DHT22;9297;47.258;11.362;2024-02-21T12:11:20;11.80;31.20
5605;DHT22;9297;47.258;11.362;2024-02-21T12:13:48;11.70;29.20
5605;DHT22;9297;47.258;11.362;2024-02-21T12:16:27;11.70;28.50
5605;DHT22;9297;47.258;11.362;2024-02-21T12:18:54;12.10;29.70
5605;DHT22;9297;47.258;11.362;2024-02-21T12:21:24;12.10;29.20
5605;DHT22;9297;47.258;11.362;2024-02-21T12:23:51;12.10;29.40
5605;DHT22;9297;47.258;11.362;2024-02-21T12:26:18;12.10;30.20
5605;DHT22;9297;47.258;11.362;2024-02-21T12:28:47;12.20;29.60
5605;DHT22;9297;47.258;11.362;2024-02-21T12:31:14;12.20;28.70
5605;DHT22;9297;47.258;11.362;2024-02-21T12:33:43;12.30;28.50
5605;DHT22;9297;47.258;11.362;2024-02-21T12:36:10;12.60;29.10
5605;DHT22;9297;47.258;11.362;2024-02-21T12:38:37;12.60;27.90
5605;DHT22;9297;47.258;11.362;2024-02-21T12:41:05;12.60;29.60
5605;DHT22;9297;47.258;11.362;2024-02-21T12:43:32;12.70;30.20
5605;DHT22;9297;47.258;11.362;2024-02-21T12:45:59;12.90;30.10
5605;DHT22;9297;47.258;11.362;2024-02-21T12:48:26;12.90;29.00
5605;DHT22;9297;47.258;11.362;2024-02-21T12:50:54;13.00;28.10
5605;DHT22;9297;47.258;11.362;2024-02-21T12:53:21;13.00;28.40
5605;DHT22;9297;47.258;11.362;2024-02-21T12:55:58;13.10;28.10
5605;DHT22;9297;47.258;11.362;2024-02-21T12:58:25;13.30;26.50
5605;DHT22;9297;47.258;11.362;2024-02-21T13:00:52;13.40;26.70
5605;DHT22;9297;47.258;11.362;2024-02-21T13:03:19;13.60;26.90
5605;DHT22;9297;47.258;11.362;2024-02-21T13:05:46;13.70;26.90
5605;DHT22;9297;47.258;11.362;2024-02-21T13:08:15;13.80;25.70
5605;DHT22;9297;47.258;11.362;2024-02-21T13:10:42;13.90;24.60
5605;DHT22;9297;47.258;11.362;2024-02-21T13:13:09;14.10;25.30
5605;DHT22;9297;47.258;11.362;2024-02-21T13:15:36;14.20;24.40
5605;DHT22;9297;47.258;11.362;2024-02-21T13:18:03;14.40;25.40
5605;DHT22;9297;47.258;11.362;2024-02-21T13:20:30;14.40;24.40
5605;DHT22;9297;47.258;11.362;2024-02-21T13:22:57;14.40;25.00
5605;DHT22;9297;47.258;11.362;2024-02-21T13:25:26;14.40;24.10
5605;DHT22;9297;47.258;11.362;2024-02-21T13:27:53;14.50;25.20
5605;DHT22;9297;47.258;11.362;2024-02-21T13:30:19;14.40;24.80
5605;DHT22;9297;47.258;11.362;2024-02-21T13:32:46;14.30;25.10
5605;DHT22;9297;47.258;11.362;2024-02-21T13:35:14;14.30;25.10
5605;DHT22;9297;47.258;11.362;2024-02-21T13:37:41;14.40;25.50
5605;DHT22;9297;47.258;11.362;2024-02-21T13:40:09;14.40;24.70
5605;DHT22;9297;47.258;11.362;2024-02-21T13:42:37;14.40;23.70
5605;DHT22;9297;47.258;11.362;2024-02-21T13:45:06;14.60;25.00
5605;DHT22;9297;47.258;11.362;2024-02-21T13:47:33;14.70;25.00
5605;DHT22;9297;47.258;11.362;2024-02-21T13:50:00;14.70;24.80
5605;DHT22;9297;47.258;11.362;2024-02-21T13:52:27;14.80;24.00
5605;DHT22;9297;47.258;11.362;2024-02-21T13:54:54;15.00;24.70
5605;DHT22;9297;47.258;11.362;2024-02-21T13:57:21;15.30;23.30
5605;DHT22;9297;47.258;11.362;2024-02-21T13:59:49;15.60;24.60
5605;DHT22;9297;47.258;11.362;2024-02-21T14:02:16;16.00;24.00
5605;DHT22;9297;47.258;11.362;2024-02-21T14:04:43;16.50;24.00
5605;DHT22;9297;47.258;11.362;2024-02-21T14:07:10;16.70;21.10
5605;DHT22;9297;47.258;11.362;2024-02-21T14:09:37;17.10;21.00
5605;DHT22;9297;47.258;11.362;2024-02-21T14:12:05;17.40;20.20
5605;DHT22;9297;47.258;11.362;2024-02-21T14:14:33;18.00;18.80
5605;DHT22;9297;47.258;11.362;2024-02-21T14:17:05;18.70;18.50
5605;DHT22;9297;47.258;11.362;2024-02-21T14:19:32;18.90;18.10
5605;DHT22;9297;47.258;11.362;2024-02-21T14:21:59;19.20;17.20
5605;DHT22;9297;47.258;11.362;2024-02-21T14:24:26;18.60;17.60
5605;DHT22;9297;47.258;11.362;2024-02-21T14:26:53;18.40;18.40
5605;DHT22;9297;47.258;11.362;2024-02-21T14:29:20;17.90;19.40
5605;DHT22;9297;47.258;11.362;2024-02-21T14:31:47;17.60;19.70
5605;DHT22;9297;47.258;11.362;2024-02-21T14:34:16;17.30;20.00
5605;DHT22;9297;47.258;11.362;2024-02-21T14:36:43;16.60;21.40
5605;DHT22;9297;47.258;11.362;2024-02-21T14:39:10;16.30;21.70
5605;DHT22;9297;47.258;11.362;2024-02-21T14:41:37;15.80;22.80
5605;DHT22;9297;47.258;11.362;2024-02-21T14:44:04;15.30;24.40
5605;DHT22;9297;47.258;11.362;2024-02-21T14:46:31;14.90;25.30
5605;DHT22;9297;47.258;11.362;2024-02-21T14:48:58;14.70;26.40
5605;DHT22;9297;47.258;11.362;2024-02-21T14:51:27;14.60;26.80
5605;DHT22;9297;47.258;11.362;2024-02-21T14:53:54;14.40;28.00
5605;DHT22;9297;47.258;11.362;2024-02-21T14:56:21;14.50;27.90
5605;DHT22;9297;47.258;11.362;2024-02-21T14:58:48;14.30;31.80
5605;DHT22;9297;47.258;11.362;2024-02-21T15:01:19;14.20;33.80
5605;DHT22;9297;47.258;11.362;2024-02-21T15:03:46;14.10;33.20
5605;DHT22;9297;47.258;11.362;2024-02-21T15:06:14;14.10;33.00
5605;DHT22;9297;47.258;11.362;2024-02-21T15:08:42;13.90;32.40
5605;DHT22;9297;47.258;11.362;2024-02-21T15:11:09;13.90;33.80
5605;DHT22;9297;47.258;11.362;2024-02-21T15:13:36;13.80;34.70
5605;DHT22;9297;47.258;11.362;2024-02-21T15:16:03;13.70;35.00
5605;DHT22;9297;47.258;11.362;2024-02-21T15:18:31;13.70;36.20
5605;DHT22;9297;47.258;11.362;2024-02-21T15:20:57;13.60;36.70
5605;DHT22;9297;47.258;11.362;2024-02-21T15:23:24;13.50;36.20
5605;DHT22;9297;47.258;11.362;2024-02-21T15:25:53;13.50;36.30
5605;DHT22;9297;47.258;11.362;2024-02-21T15:28:20;13.50;37.30
5605;DHT22;9297;47.258;11.362;2024-02-21T15:30:47;13.40;37.50
5605;DHT22;9297;47.258;11.362;2024-02-21T15:33:14;13.30;38.20
5605;DHT22;9297;47.258;11.362;2024-02-21T15:35:41;13.20;38.70
5605;DHT22;9297;47.258;11.362;2024-02-21T15:38:08;13.10;38.90
5605;DHT22;9297;47.258;11.362;2024-02-21T15:40:35;13.00;38.70
5605;DHT22;9297;47.258;11.362;2024-02-21T15:43:03;13.00;38.50
5605;DHT22;9297;47.258;11.362;2024-02-21T15:45:30;12.90;38.70
5605;DHT22;9297;47.258;11.362;2024-02-21T15:47:57;12.90;39.70
5605;DHT22;9297;47.258;11.362;2024-02-21T15:50:24;12.80;40.80
5605;DHT22;9297;47.258;11.362;2024-02-21T15:52:51;12.70;40.20
5605;DHT22;9297;47.258;11.362;2024-02-21T15:55:18;12.60;40.90
5605;DHT22;9297;47.258;11.362;2024-02-21T15:57:45;12.60;42.10
5605;DHT22;9297;47.258;11.362;2024-02-21T16:00:15;12.50;43.50